Time;durP1;ratioP1;P1;durP2;ratioP2;P2;SDS_P1;SDS_P2;PMS_P1;PMS_P2;Temp;Humidity;BMP_temperature;BMP_pressure;BME280_temperature;BME280_humidity;BME280_pressure;Samples;Min_cycle;Max_cycle;Signal;HPM_P1;HPM_P2
2022/09/01 00:02:19;;;;;;;4.32;3.25;;;;;;;;;;4767419;30;20027;-75
2022/09/01 00:04:46;;;;;;;4.32;2.85;;;;;;;;;;4767166;30;20032;-75
2022/09/01 00:07:13;;;;;;;4.22;3.22;;;;;;;;;;4753902;30;20038;-74
2022/09/01 00:09:40;;;;;;;5.38;3.17;;;;;;;;;;4753883;30;20040;-74
2022/09/01 00:12:07;;;;;;;3.47;2.90;;;;;;;;;;4753835;30;20417;-75
2022/09/01 00:14:35;;;;;;;3.30;3.00;;;;;;;;;;4753488;30;20036;-75
2022/09/01 00:17:04;;;;;;;4.43;3.30;;;;;;;;;;4753308;30;20698;-75
2022/09/01 00:19:32;;;;;;;4.88;3.08;;;;;;;;;;4753078;30;20055;-75
2022/09/01 00:21:59;;;;;;;5.00;3.30;;;;;;;;;;4753543;30;20028;-74
2022/09/01 00:24:25;;;;;;;4.65;3.17;;;;;;;;;;4752586;30;20044;-73
2022/09/01 00:26:52;;;;;;;3.40;3.10;;;;;;;;;;4753303;30;20032;-74
2022/09/01 00:29:19;;;;;;;5.18;3.58;;;;;;;;;;4753610;30;20035;-75
2022/09/01 00:31:46;;;;;;;6.13;3.53;;;;;;;;;;4753186;30;20040;-75
2022/09/01 00:34:12;;;;;;;4.15;3.20;;;;;;;;;;4753031;30;20035;-74
2022/09/01 00:36:38;;;;;;;4.68;3.13;;;;;;;;;;4753317;30;20495;-74
2022/09/01 00:39:06;;;;;;;7.78;3.55;;;;;;;;;;4753082;30;20028;-75
2022/09/01 00:41:33;;;;;;;4.10;3.63;;;;;;;;;;4753534;30;20036;-74
2022/09/01 00:44:01;;;;;;;7.93;3.65;;;;;;;;;;4753199;30;20748;-74
2022/09/01 00:46:33;;;;;;;4.88;3.40;;;;;;;;;;4752968;30;20040;-75
2022/09/01 00:49:08;;;;;;;6.38;3.17;;;;;;;;;;4752890;30;20036;-75
2022/09/01 00:51:37;;;;;;;4.35;3.60;;;;;;;;;;4752869;30;20033;-75
2022/09/01 00:54:05;;;;;;;4.60;3.47;;;;;;;;;;4752720;30;20028;-75
2022/09/01 00:56:31;;;;;;;4.55;3.53;;;;;;;;;;4752783;30;20491;-75
2022/09/01 00:58:58;;;;;;;5.28;3.33;;;;;;;;;;4753023;30;20036;-75
2022/09/01 01:01:25;;;;;;;4.05;3.15;;;;;;;;;;4752724;30;20036;-75
2022/09/01 01:03:51;;;;;;;4.80;3.25;;;;;;;;;;4752796;30;20031;-75
2022/09/01 01:06:18;;;;;;;5.38;3.83;;;;;;;;;;4752666;30;20036;-75
2022/09/01 01:09:00;;;;;;;4.68;3.67;;;;;;;;;;4752771;30;20031;-75
2022/09/01 01:11:28;;;;;;;5.85;3.88;;;;;;;;;;4752646;30;20039;-75
2022/09/01 01:13:57;;;;;;;4.97;3.65;;;;;;;;;;4752772;30;20028;-75
2022/09/01 01:16:24;;;;;;;5.75;4.05;;;;;;;;;;4752279;30;20035;-75
2022/09/01 01:18:51;;;;;;;7.57;4.03;;;;;;;;;;4752282;30;20059;-75
2022/09/01 01:24:05;;;;;;;6.32;4.47;;;;;;;;;;4752490;30;20020;-75
2022/09/01 01:26:31;;;;;;;5.63;3.70;;;;;;;;;;4752436;30;20035;-75
2022/09/01 01:28:58;;;;;;;6.10;4.28;;;;;;;;;;4752246;30;20028;-75
2022/09/01 01:31:25;;;;;;;6.55;4.15;;;;;;;;;;4752007;30;20053;-74
2022/09/01 01:33:52;;;;;;;4.63;3.75;;;;;;;;;;4752443;30;20032;-75
2022/09/01 01:36:31;;;;;;;4.75;4.15;;;;;;;;;;4752495;30;20058;-75
2022/09/01 01:39:02;;;;;;;6.60;4.43;;;;;;;;;;4751860;30;20039;-75
2022/09/01 01:41:32;;;;;;;5.13;3.90;;;;;;;;;;4752346;30;20028;-75
2022/09/01 01:44:03;;;;;;;12.50;4.63;;;;;;;;;;4752182;30;20495;-75
2022/09/01 01:46:30;;;;;;;8.80;4.00;;;;;;;;;;4751734;30;20282;-75
2022/09/01 01:48:56;;;;;;;5.45;4.18;;;;;;;;;;4780325;30;20036;-75
2022/09/01 01:51:27;;;;;;;6.88;4.70;;;;;;;;;;4751971;30;20081;-75
2022/09/01 01:53:54;;;;;;;9.93;4.07;;;;;;;;;;4751818;30;20034;-75
2022/09/01 01:56:24;;;;;;;6.88;3.70;;;;;;;;;;4751871;30;20066;-75
2022/09/01 01:58:55;;;;;;;6.00;4.35;;;;;;;;;;4751926;30;20490;-75
2022/09/01 02:01:24;;;;;;;;;;;;;;;;;;4752260;30;20510;-75
2022/09/01 02:03:53;;;;;;;5.82;4.20;;;;;;;;;;4752038;30;19920;-74
2022/09/01 02:06:23;;;;;;;8.80;4.15;;;;;;;;;;4751985;30;20020;-75
2022/09/01 02:08:51;;;;;;;6.00;4.32;;;;;;;;;;4751845;30;20040;-75
2022/09/01 02:11:17;;;;;;;6.70;3.95;;;;;;;;;;4751752;30;20032;-75
2022/09/01 02:13:45;;;;;;;5.40;4.07;;;;;;;;;;4751245;30;20515;-75
2022/09/01 02:16:11;;;;;;;5.32;4.05;;;;;;;;;;4765373;30;20032;-75
2022/09/01 02:18:41;;;;;;;7.50;4.10;;;;;;;;;;4751497;30;20064;-75
2022/09/01 02:21:10;;;;;;;5.03;3.92;;;;;;;;;;4751471;30;20113;-75
2022/09/01 02:23:37;;;;;;;7.15;4.57;;;;;;;;;;4751616;30;20043;-75
2022/09/01 02:26:05;;;;;;;4.18;3.75;;;;;;;;;;4751541;30;20438;-75
2022/09/01 02:28:35;;;;;;;7.95;4.50;;;;;;;;;;4764979;30;20535;-75
2022/09/01 02:31:03;;;;;;;7.07;4.07;;;;;;;;;;4751417;30;20414;-75
2022/09/01 02:33:30;;;;;;;9.18;4.15;;;;;;;;;;4751594;30;20024;-75
2022/09/01 02:35:58;;;;;;;8.68;4.13;;;;;;;;;;4751431;30;20574;-74
2022/09/01 02:38:28;;;;;;;5.05;4.55;;;;;;;;;;4751842;30;20120;-75
2022/09/01 02:40:56;;;;;;;7.85;4.35;;;;;;;;;;4764836;30;20038;-75
2022/09/01 02:43:22;;;;;;;5.75;4.53;;;;;;;;;;4751449;30;20032;-75
2022/09/01 02:45:54;;;;;;;6.07;4.65;;;;;;;;;;4751570;30;20048;-75
2022/09/01 02:48:25;;;;;;;9.32;4.20;;;;;;;;;;4755323;30;20031;-75
2022/09/01 02:50:52;;;;;;;;;;;;;;;;;;4755341;30;20043;-75
2022/09/01 02:53:19;;;;;;;5.13;4.22;;;;;;;;;;4755027;30;20373;-75
2022/09/01 02:55:45;;;;;;;6.78;4.45;;;;;;;;;;4754680;30;20028;-75
2022/09/01 02:58:15;;;;;;;7.93;4.18;;;;;;;;;;4754656;30;20040;-75
2022/09/01 03:00:44;;;;;;;5.53;4.93;;;;;;;;;;4755145;30;20499;-75
2022/09/01 03:03:18;;;;;;;7.75;4.80;;;;;;;;;;4754738;30;20036;-75
2022/09/01 03:05:44;;;;;;;8.13;4.70;;;;;;;;;;4754537;30;20394;-75
2022/09/01 03:08:14;;;;;;;6.00;5.00;;;;;;;;;;4754797;30;20028;-75
2022/09/01 03:10:42;;;;;;;9.07;4.27;;;;;;;;;;4754927;30;20024;-75
2022/09/01 03:13:10;;;;;;;5.10;4.50;;;;;;;;;;4754367;30;20032;-75
2022/09/01 03:15:37;;;;;;;7.45;4.53;;;;;;;;;;4754570;30;20039;-75
2022/09/01 03:18:05;;;;;;;5.43;4.93;;;;;;;;;;4754423;30;20052;-74
2022/09/01 03:20:35;;;;;;;5.35;4.28;;;;;;;;;;4754454;30;20048;-75
2022/09/01 03:23:03;;;;;;;7.68;4.45;;;;;;;;;;4754475;30;20466;-74
2022/09/01 03:25:30;;;;;;;6.28;5.00;;;;;;;;;;4754407;30;20040;-75
2022/09/01 03:28:00;;;;;;;5.32;4.20;;;;;;;;;;4754079;30;20490;-74
2022/09/01 03:30:28;;;;;;;6.65;4.85;;;;;;;;;;4754101;30;20036;-75
2022/09/01 03:32:58;;;;;;;7.43;4.45;;;;;;;;;;4754306;30;20032;-75
2022/09/01 03:35:27;;;;;;;6.95;4.10;;;;;;;;;;4754524;30;20036;-75
2022/09/01 03:37:57;;;;;;;7.00;4.60;;;;;;;;;;4754057;30;20452;-75
2022/09/01 03:40:35;;;;;;;6.43;4.43;;;;;;;;;;4753701;30;20044;-74
2022/09/01 03:43:02;;;;;;;8.52;4.95;;;;;;;;;;4754117;30;20505;-75
2022/09/01 03:45:29;;;;;;;6.65;4.50;;;;;;;;;;4782568;30;20040;-75
2022/09/01 03:47:57;;;;;;;7.25;4.60;;;;;;;;;;4754122;30;20027;-75
2022/09/01 03:50:24;;;;;;;4.82;4.35;;;;;;;;;;4754045;30;20033;-75
2022/09/01 03:52:53;;;;;;;5.20;4.70;;;;;;;;;;4753900;30;20044;-75
2022/09/01 03:55:22;;;;;;;15.70;4.55;;;;;;;;;;4753494;30;20032;-75
2022/09/01 03:57:49;;;;;;;5.90;4.85;;;;;;;;;;4752690;30;20036;-75
2022/09/01 04:00:19;;;;;;;4.85;4.45;;;;;;;;;;4753762;30;20483;-74
2022/09/01 04:02:49;;;;;;;6.97;5.07;;;;;;;;;;4754028;30;20074;-75
2022/09/01 04:05:16;;;;;;;6.47;5.15;;;;;;;;;;4754056;30;20067;-75
2022/09/01 04:07:44;;;;;;;6.22;4.80;;;;;;;;;;4752578;30;20044;-75
2022/09/01 04:10:11;;;;;;;8.50;5.00;;;;;;;;;;4753270;30;20032;-74
2022/09/01 04:12:37;;;;;;;6.10;4.63;;;;;;;;;;4753610;30;20036;-75
2022/09/01 04:15:04;;;;;;;6.15;4.97;;;;;;;;;;4767336;30;20040;-74
2022/09/01 04:20:19;;;;;;;6.63;4.85;;;;;;;;;;4753344;30;20044;-75
2022/09/01 04:22:49;;;;;;;6.43;4.32;;;;;;;;;;4753564;30;20032;-75
2022/09/01 04:25:17;;;;;;;6.28;4.95;;;;;;;;;;4753110;30;20400;-75
2022/09/01 04:28:11;;;;;;;8.23;4.80;;;;;;;;;;4781929;30;20028;-75
2022/09/01 04:30:39;;;;;;;6.90;5.18;;;;;;;;;;4752060;30;20039;-75
2022/09/01 04:33:06;;;;;;;8.05;4.75;;;;;;;;;;4753191;30;20081;-75
2022/09/01 04:35:37;;;;;;;6.18;4.80;;;;;;;;;;4753275;30;20032;-75
2022/09/01 04:38:06;;;;;;;7.10;5.35;;;;;;;;;;4753564;30;20025;-75
2022/09/01 04:40:33;;;;;;;6.78;5.30;;;;;;;;;;4752850;30;20055;-75
2022/09/01 04:42:59;;;;;;;7.38;5.35;;;;;;;;;;4753212;30;20024;-75
2022/09/01 04:45:26;;;;;;;9.38;4.55;;;;;;;;;;4753199;30;20028;-74
2022/09/01 04:47:54;;;;;;;6.82;4.63;;;;;;;;;;4752992;30;20033;-75
2022/09/01 04:50:20;;;;;;;8.68;5.05;;;;;;;;;;4752908;30;20032;-75
2022/09/01 04:52:47;;;;;;;8.45;5.00;;;;;;;;;;4753014;30;20035;-75
2022/09/01 04:55:17;;;;;;;8.25;5.65;;;;;;;;;;4752485;30;20028;-75
2022/09/01 04:57:46;;;;;;;8.40;5.40;;;;;;;;;;4753003;30;20039;-75
2022/09/01 05:00:23;;;;;;;6.60;4.93;;;;;;;;;;4752759;30;20293;-75
2022/09/01 05:02:51;;;;;;;8.00;5.10;;;;;;;;;;4752895;30;20034;-74
2022/09/01 05:05:18;;;;;;;9.80;4.93;;;;;;;;;;4752701;30;20033;-75
2022/09/01 05:07:44;;;;;;;7.20;5.55;;;;;;;;;;4752381;30;20036;-74
2022/09/01 05:10:11;;;;;;;7.25;5.72;;;;;;;;;;4752516;30;20024;-75
2022/09/01 05:12:37;;;;;;;6.68;5.47;;;;;;;;;;4766387;30;20061;-75
2022/09/01 05:15:08;;;;;;;7.90;5.65;;;;;;;;;;4752425;30;20040;-75
2022/09/01 05:17:37;;;;;;;6.18;5.25;;;;;;;;;;4752498;30;20056;-74
2022/09/01 05:20:04;;;;;;;9.25;5.55;;;;;;;;;;4752615;30;20044;-74
2022/09/01 05:22:31;;;;;;;8.85;5.28;;;;;;;;;;4752237;30;20032;-75
2022/09/01 05:25:10;;;;;;;5.97;5.10;;;;;;;;;;4751270;30;20040;-74
2022/09/01 05:27:40;;;;;;;9.05;5.60;;;;;;;;;;4751281;30;20028;-75
2022/09/01 05:30:07;;;;;;;8.43;5.40;;;;;;;;;;4752254;30;20040;-75
2022/09/01 05:32:36;;;;;;;5.95;5.25;;;;;;;;;;4751562;30;20032;-74
2022/09/01 05:35:07;;;;;;;6.93;5.22;;;;;;;;;;4752190;30;20494;-74
2022/09/01 05:37:36;;;;;;;11.70;5.20;;;;;;;;;;4752015;30;20032;-75
2022/09/01 05:40:08;;;;;;;11.43;5.63;;;;;;;;;;4752550;30;20058;-75
2022/09/01 05:42:38;;;;;;;8.27;5.20;;;;;;;;;;4752336;30;20445;-74
2022/09/01 05:45:05;;;;;;;6.72;5.05;;;;;;;;;;4752194;30;20036;-75
2022/09/01 05:47:35;;;;;;;8.35;5.55;;;;;;;;;;4752081;30;20039;-74
2022/09/01 05:50:02;;;;;;;7.50;5.18;;;;;;;;;;4752105;30;20028;-74
2022/09/01 05:52:32;;;;;;;12.93;5.65;;;;;;;;;;4751788;30;20456;-74
2022/09/01 05:54:59;;;;;;;9.40;5.50;;;;;;;;;;4751611;30;20036;-74
2022/09/01 05:57:26;;;;;;;9.43;5.07;;;;;;;;;;4752180;30;20402;-75
2022/09/01 05:59:53;;;;;;;7.88;5.35;;;;;;;;;;4751680;30;20046;-75
2022/09/01 06:02:20;;;;;;;6.10;4.93;;;;;;;;;;4751728;30;20028;-74
2022/09/01 06:04:47;;;;;;;6.72;4.85;;;;;;;;;;4751779;30;20042;-75
2022/09/01 06:07:15;;;;;;;11.52;5.47;;;;;;;;;;4751311;30;20028;-74
2022/09/01 06:09:43;;;;;;;14.00;5.50;;;;;;;;;;4751467;30;20398;-75
2022/09/01 06:12:16;;;;;;;9.05;5.70;;;;;;;;;;4751602;30;20032;-75
2022/09/01 06:14:47;;;;;;;7.70;5.30;;;;;;;;;;4746455;30;20292;-63
2022/09/01 06:17:15;;;;;;;8.40;4.70;;;;;;;;;;4746174;30;20053;-64
2022/09/01 06:19:42;;;;;;;7.53;4.97;;;;;;;;;;4737945;30;20057;-63
2022/09/01 06:22:09;;;;;;;8.13;5.25;;;;;;;;;;4732420;30;20028;-63
2022/09/01 06:24:38;;;;;;;10.00;5.32;;;;;;;;;;4737983;30;20085;-63
2022/09/01 06:27:08;;;;;;;11.43;5.75;;;;;;;;;;4742740;30;20514;-61
2022/09/01 06:29:38;;;;;;;14.15;4.60;;;;;;;;;;4739196;30;20036;-63
2022/09/01 06:32:09;;;;;;;26.98;6.03;;;;;;;;;;4748457;30;20032;-63
2022/09/01 06:34:35;;;;;;;;;;;;;;;;;;4747064;30;20206;-63
2022/09/01 06:37:01;;;;;;;23.95;5.43;;;;;;;;;;4747569;30;19922;-64
2022/09/01 06:39:28;;;;;;;14.07;5.55;;;;;;;;;;4743167;30;20037;-63
2022/09/01 06:41:56;;;;;;;20.80;6.28;;;;;;;;;;4736066;30;20494;-63
2022/09/01 06:44:23;;;;;;;33.05;6.93;;;;;;;;;;4737089;30;20033;-63
2022/09/01 06:46:50;;;;;;;32.88;6.60;;;;;;;;;;4732270;30;20521;-64
2022/09/01 06:49:17;;;;;;;17.13;6.13;;;;;;;;;;4739042;30;20024;-74
2022/09/01 06:51:48;;;;;;;13.10;5.53;;;;;;;;;;4749563;30;20042;-73
2022/09/01 06:54:15;;;;;;;15.13;5.47;;;;;;;;;;4749690;30;20035;-73
2022/09/01 06:56:41;;;;;;;13.98;5.25;;;;;;;;;;4749508;30;20040;-73
2022/09/01 06:59:08;;;;;;;16.65;5.25;;;;;;;;;;4745738;30;20025;-73
2022/09/01 07:01:38;;;;;;;11.63;5.50;;;;;;;;;;4737377;30;20040;-74
2022/09/01 07:04:04;;;;;;;14.25;5.35;;;;;;;;;;4740631;30;20029;-74
2022/09/01 07:06:30;;;;;;;6.20;5.22;;;;;;;;;;4732404;30;20043;-73
2022/09/01 07:08:58;;;;;;;14.90;5.65;;;;;;;;;;4746086;30;20044;-74
2022/09/01 07:11:27;;;;;;;10.20;5.00;;;;;;;;;;4741097;30;20055;-73
2022/09/01 07:13:54;;;;;;;8.07;5.03;;;;;;;;;;4743174;30;20693;-73
2022/09/01 07:16:22;;;;;;;9.65;5.30;;;;;;;;;;4732383;30;20445;-74
2022/09/01 07:18:49;;;;;;;13.23;5.03;;;;;;;;;;4732111;30;20057;-73
2022/09/01 07:21:16;;;;;;;7.70;4.38;;;;;;;;;;4738282;30;20050;-73
2022/09/01 07:23:42;;;;;;;6.55;4.82;;;;;;;;;;4732967;30;20090;-74
2022/09/01 07:26:10;;;;;;;5.63;5.03;;;;;;;;;;4732274;30;20033;-74
2022/09/01 07:28:37;;;;;;;7.55;4.53;;;;;;;;;;4732425;30;20033;-73
2022/09/01 07:31:04;;;;;;;8.88;4.90;;;;;;;;;;4732046;30;20376;-73
2022/09/01 07:33:31;;;;;;;7.15;4.60;;;;;;;;;;4736100;30;20043;-74
2022/09/01 07:35:58;;;;;;;5.45;4.30;;;;;;;;;;4748878;30;20031;-74
2022/09/01 07:38:27;;;;;;;7.25;4.60;;;;;;;;;;4753087;30;20071;-74
2022/09/01 07:40:53;;;;;;;6.30;4.60;;;;;;;;;;4752654;30;20056;-74
2022/09/01 07:43:23;;;;;;;9.35;4.80;;;;;;;;;;4750955;30;20032;-74
2022/09/01 07:45:53;;;;;;;8.47;4.90;;;;;;;;;;4746135;30;20033;-73
2022/09/01 07:48:19;;;;;;;18.55;5.53;;;;;;;;;;4735336;30;20029;-73
2022/09/01 07:50:47;;;;;;;6.65;4.70;;;;;;;;;;4735517;30;20037;-74
2022/09/01 07:53:17;;;;;;;81.68;8.30;;;;;;;;;;4736075;30;20020;-74
2022/09/01 07:55:45;;;;;;;48.50;7.70;;;;;;;;;;4750892;30;20054;-74
2022/09/01 07:58:14;;;;;;;23.25;6.00;;;;;;;;;;4752021;30;20284;-74
2022/09/01 08:00:45;;;;;;;63.83;7.15;;;;;;;;;;4752539;30;20495;-73
2022/09/01 08:03:12;;;;;;;12.82;5.35;;;;;;;;;;4752168;30;20047;-74
2022/09/01 08:05:38;;;;;;;7.93;5.00;;;;;;;;;;4745599;30;20033;-74
2022/09/01 08:08:05;;;;;;;10.80;5.53;;;;;;;;;;4744994;30;20520;-74
2022/09/01 08:10:31;;;;;;;7.22;5.40;;;;;;;;;;4748795;30;20600;-75
2022/09/01 08:12:57;;;;;;;9.77;5.30;;;;;;;;;;4740933;30;20491;-74
2022/09/01 08:15:24;;;;;;;8.82;5.00;;;;;;;;;;4758063;30;20042;-74
2022/09/01 08:17:51;;;;;;;8.95;5.20;;;;;;;;;;4761227;30;20062;-74
2022/09/01 08:20:17;;;;;;;11.48;5.40;;;;;;;;;;4752234;30;20051;-74
2022/09/01 08:22:43;;;;;;;6.97;5.43;;;;;;;;;;4752414;30;20036;-74
2022/09/01 08:25:10;;;;;;;5.63;4.95;;;;;;;;;;4749628;30;20351;-74
2022/09/01 08:27:40;;;;;;;7.97;4.78;;;;;;;;;;4742322;30;20028;-74
2022/09/01 08:30:06;;;;;;;;;;;;;;;;;;4736212;30;20500;-74
2022/09/01 08:32:37;;;;;;;6.70;4.88;;;;;;;;;;4736361;30;19921;-75
2022/09/01 08:35:03;;;;;;;7.55;5.22;;;;;;;;;;4746485;30;20036;-74
2022/09/01 08:37:31;;;;;;;6.43;5.35;;;;;;;;;;4740442;30;20040;-74
2022/09/01 08:39:57;;;;;;;11.93;5.32;;;;;;;;;;4734535;30;20053;-74
2022/09/01 08:42:29;;;;;;;8.13;5.30;;;;;;;;;;4736098;30;20027;-74
2022/09/01 08:44:55;;;;;;;8.40;4.72;;;;;;;;;;4739601;30;20037;-75
2022/09/01 08:47:22;;;;;;;6.95;4.78;;;;;;;;;;4751953;30;20033;-74
2022/09/01 08:49:49;;;;;;;6.93;5.03;;;;;;;;;;4751275;30;20032;-75
2022/09/01 08:52:34;;;;;;;8.27;5.40;;;;;;;;;;4751981;30;20031;-73
2022/09/01 08:55:20;;;;;;;9.15;5.22;;;;;;;;;;4747090;30;20028;-75
2022/09/01 08:57:50;;;;;;;8.30;4.95;;;;;;;;;;4759145;30;20046;-74
2022/09/01 09:00:19;;;;;;;55.95;7.80;;;;;;;;;;4769454;30;20514;-75
2022/09/01 09:02:48;;;;;;;13.65;5.25;;;;;;;;;;4754242;30;20406;-75
2022/09/01 09:05:33;;;;;;;9.65;5.95;;;;;;;;;;4751033;30;20032;-74
2022/09/01 09:08:02;;;;;;;8.25;5.13;;;;;;;;;;4751082;30;20376;-74
2022/09/01 09:10:32;;;;;;;12.98;4.78;;;;;;;;;;4747128;30;20040;-74
2022/09/01 09:13:12;;;;;;;24.00;6.05;;;;;;;;;;4740634;30;20040;-75
2022/09/01 09:15:53;;;;;;;8.40;4.85;;;;;;;;;;4741195;30;20041;-73
2022/09/01 09:18:27;;;;;;;8.32;4.78;;;;;;;;;;4768974;30;20116;-74
2022/09/01 09:20:53;;;;;;;6.70;4.63;;;;;;;;;;4757314;30;20054;-74
2022/09/01 09:23:24;;;;;;;11.20;5.10;;;;;;;;;;4751212;30;20028;-75
2022/09/01 09:25:50;;;;;;;9.38;4.38;;;;;;;;;;4751192;30;20513;-75
2022/09/01 09:28:17;;;;;;;9.60;4.10;;;;;;;;;;4765641;30;20425;-74
2022/09/01 09:30:43;;;;;;;11.15;5.05;;;;;;;;;;4751680;30;20032;-73
2022/09/01 09:33:11;;;;;;;6.78;4.13;;;;;;;;;;4763629;30;20024;-74
2022/09/01 09:35:42;;;;;;;6.55;4.95;;;;;;;;;;4769708;30;20028;-73
2022/09/01 09:38:31;;;;;;;7.18;4.47;;;;;;;;;;4769986;30;20043;-73
2022/09/01 09:41:27;;;;;;;7.40;4.57;;;;;;;;;;4769648;30;20035;-73
2022/09/01 09:43:55;;;;;;;6.90;4.30;;;;;;;;;;4768861;30;20062;-73
2022/09/01 09:46:31;;;;;;;7.07;4.68;;;;;;;;;;4744520;30;20028;-74
2022/09/01 09:49:22;;;;;;;9.00;5.20;;;;;;;;;;4769354;30;20036;-72
2022/09/01 09:51:50;;;;;;;6.95;5.10;;;;;;;;;;4760033;30;20041;-73
2022/09/01 09:54:21;;;;;;;7.32;4.28;;;;;;;;;;4750915;30;20107;-73
2022/09/01 09:56:49;;;;;;;10.52;5.07;;;;;;;;;;4751812;30;20046;-72
2022/09/01 09:59:18;;;;;;;8.55;4.57;;;;;;;;;;4779810;30;20043;-72
2022/09/01 10:01:45;;;;;;;10.77;5.18;;;;;;;;;;4765257;30;20037;-72
2022/09/01 10:04:30;;;;;;;12.73;5.78;;;;;;;;;;4761800;30;20042;-72
2022/09/01 10:06:56;;;;;;;8.35;5.38;;;;;;;;;;4743176;30;20075;-72
2022/09/01 10:09:23;;;;;;;6.03;5.13;;;;;;;;;;4733909;30;20024;-73
2022/09/01 10:11:52;;;;;;;7.22;5.53;;;;;;;;;;4733671;30;20076;-73
2022/09/01 10:14:21;;;;;;;14.70;5.50;;;;;;;;;;4750363;30;20036;-72
2022/09/01 10:16:49;;;;;;;6.90;5.28;;;;;;;;;;4751485;30;20024;-72
2022/09/01 10:19:16;;;;;;;11.43;5.20;;;;;;;;;;4751304;30;20040;-72
2022/09/01 10:21:43;;;;;;;9.85;5.18;;;;;;;;;;4751265;30;20414;-72
2022/09/01 10:24:19;;;;;;;8.48;5.18;;;;;;;;;;4751355;30;20452;-72
2022/09/01 10:26:48;;;;;;;5.45;4.60;;;;;;;;;;4750995;30;20034;-72
2022/09/01 10:29:17;;;;;;;6.85;4.43;;;;;;;;;;4751155;30;20062;-71
2022/09/01 10:31:44;;;;;;;8.18;4.65;;;;;;;;;;4751065;30;20364;-72
2022/09/01 10:34:16;;;;;;;8.27;4.80;;;;;;;;;;4751318;30;20040;-72
2022/09/01 10:36:43;;;;;;;8.68;4.82;;;;;;;;;;4751367;30;20034;-72
2022/09/01 10:39:11;;;;;;;12.50;5.03;;;;;;;;;;4751197;30;20036;-72
2022/09/01 10:41:43;;;;;;;6.60;4.45;;;;;;;;;;4750779;30;20075;-72
2022/09/01 10:44:10;;;;;;;7.07;4.95;;;;;;;;;;4751181;30;20038;-72
2022/09/01 10:46:37;;;;;;;8.00;4.72;;;;;;;;;;4751520;30;20032;-72
2022/09/01 10:49:12;;;;;;;6.57;4.55;;;;;;;;;;4751170;30;20040;-72
2022/09/01 10:51:43;;;;;;;5.53;4.47;;;;;;;;;;4751010;30;20036;-73
2022/09/01 10:54:30;;;;;;;6.97;4.45;;;;;;;;;;4750994;30;20025;-73
2022/09/01 10:56:59;;;;;;;11.32;4.63;;;;;;;;;;4750802;30;20032;-72
2022/09/01 10:59:29;;;;;;;7.30;4.60;;;;;;;;;;4750980;30;20423;-72
2022/09/01 11:01:56;;;;;;;4.93;3.92;;;;;;;;;;4751241;30;20050;-72
2022/09/01 11:04:22;;;;;;;11.35;4.38;;;;;;;;;;4751268;30;20120;-72
2022/09/01 11:06:55;;;;;;;8.10;4.10;;;;;;;;;;4751324;30;20043;-72
2022/09/01 11:09:27;;;;;;;8.68;3.92;;;;;;;;;;4783236;30;20427;-72
2022/09/01 11:12:09;;;;;;;8.13;4.10;;;;;;;;;;4754120;30;20046;-72
2022/09/01 11:14:46;;;;;;;7.00;4.13;;;;;;;;;;4754400;30;20448;-72
2022/09/01 11:17:15;;;;;;;7.18;3.58;;;;;;;;;;4754566;30;20044;-72
2022/09/01 11:20:02;;;;;;;5.70;3.70;;;;;;;;;;4754202;30;20032;-72
2022/09/01 11:22:33;;;;;;;8.70;4.07;;;;;;;;;;4754407;30;20124;-72
2022/09/01 11:25:05;;;;;;;4.93;3.83;;;;;;;;;;4753874;30;20028;-72
2022/09/01 11:27:50;;;;;;;5.82;3.90;;;;;;;;;;4754383;30;20036;-72
2022/09/01 11:30:36;;;;;;;5.43;3.83;;;;;;;;;;4754375;30;20043;-72
2022/09/01 11:33:26;;;;;;;5.38;3.67;;;;;;;;;;4751934;30;20055;-73
2022/09/01 11:36:03;;;;;;;13.50;4.20;;;;;;;;;;4751963;30;20134;-73
2022/09/01 11:38:38;;;;;;;10.43;3.35;;;;;;;;;;4735273;30;20048;-69
2022/09/01 11:41:04;;;;;;;4.85;3.78;;;;;;;;;;4733494;30;20047;-70
2022/09/01 11:43:30;;;;;;;9.80;3.88;;;;;;;;;;4734310;30;20028;-70
2022/09/01 11:45:56;;;;;;;8.95;4.82;;;;;;;;;;4734129;30;20047;-70
2022/09/01 11:48:25;;;;;;;6.35;3.83;;;;;;;;;;4734123;30;20490;-70
2022/09/01 11:51:00;;;;;;;5.18;3.58;;;;;;;;;;4734136;30;20040;-70
2022/09/01 11:53:27;;;;;;;6.18;3.78;;;;;;;;;;4733504;30;20039;-70
2022/09/01 11:55:56;;;;;;;4.25;3.85;;;;;;;;;;4751395;30;20040;-71
2022/09/01 11:58:29;;;;;;;6.15;3.90;;;;;;;;;;4751522;30;20388;-70
2022/09/01 12:00:59;;;;;;;7.55;4.25;;;;;;;;;;4747945;30;20048;-70
2022/09/01 12:03:28;;;;;;;6.53;3.80;;;;;;;;;;4731738;30;20046;-70
2022/09/01 12:06:05;;;;;;;8.40;3.90;;;;;;;;;;4733340;30;20041;-70
2022/09/01 12:08:33;;;;;;;7.75;4.00;;;;;;;;;;4732661;30;20426;-70
2022/09/01 12:11:04;;;;;;;6.70;3.83;;;;;;;;;;4750420;30;20048;-70
2022/09/01 12:13:31;;;;;;;8.98;4.20;;;;;;;;;;4751958;30;20038;-70
2022/09/01 12:16:02;;;;;;;8.85;3.80;;;;;;;;;;4753358;30;20108;-70
2022/09/01 12:18:46;;;;;;;5.80;3.80;;;;;;;;;;4752366;30;20420;-70
2022/09/01 12:21:19;;;;;;;10.68;3.85;;;;;;;;;;4752966;30;20097;-70
2022/09/01 12:23:46;;;;;;;7.38;3.40;;;;;;;;;;4752833;30;20024;-70
2022/09/01 12:26:14;;;;;;;4.43;3.25;;;;;;;;;;4752601;30;20037;-70
2022/09/01 12:28:41;;;;;;;5.95;3.58;;;;;;;;;;4752160;30;20024;-70
2022/09/01 12:31:11;;;;;;;10.43;3.50;;;;;;;;;;4751291;30;20036;-70
2022/09/01 12:33:38;;;;;;;7.18;3.70;;;;;;;;;;4752747;30;20031;-70
2022/09/01 12:36:14;;;;;;;5.32;3.38;;;;;;;;;;4752063;30;20039;-70
2022/09/01 12:38:40;;;;;;;7.35;3.80;;;;;;;;;;4752727;30;20024;-71
2022/09/01 12:41:22;;;;;;;4.82;3.63;;;;;;;;;;4752581;30;20036;-70
2022/09/01 12:43:49;;;;;;;6.93;3.58;;;;;;;;;;4752554;30;20501;-70
2022/09/01 12:46:35;;;;;;;4.53;3.35;;;;;;;;;;4752989;30;20044;-71
2022/09/01 12:49:22;;;;;;;4.63;3.00;;;;;;;;;;4752747;30;20031;-70
2022/09/01 12:51:49;;;;;;;6.72;3.42;;;;;;;;;;4752224;30;20043;-71
2022/09/01 12:54:24;;;;;;;7.88;3.67;;;;;;;;;;4751485;30;20039;-70
2022/09/01 12:56:50;;;;;;;7.13;3.20;;;;;;;;;;4752951;30;20043;-70
2022/09/01 12:59:24;;;;;;;6.72;3.50;;;;;;;;;;4752424;30;20036;-71
2022/09/01 13:01:51;;;;;;;5.90;3.17;;;;;;;;;;4752702;30;20048;-70
2022/09/01 13:04:21;;;;;;;5.75;3.70;;;;;;;;;;4752352;30;20032;-71
2022/09/01 13:06:48;;;;;;;6.95;3.28;;;;;;;;;;4750990;30;20048;-70
2022/09/01 13:09:15;;;;;;;8.23;3.38;;;;;;;;;;4752230;30;20036;-70
2022/09/01 13:11:42;;;;;;;4.82;3.10;;;;;;;;;;4752286;30;20043;-70
2022/09/01 13:14:08;;;;;;;3.90;3.25;;;;;;;;;;4752397;30;20038;-71
2022/09/01 13:16:36;;;;;;;5.10;3.58;;;;;;;;;;4752425;30;20405;-70
2022/09/01 13:19:02;;;;;;;3.85;3.33;;;;;;;;;;4751955;30;20082;-71
2022/09/01 13:21:29;;;;;;;12.23;3.22;;;;;;;;;;4752200;30;20050;-70
2022/09/01 13:23:56;;;;;;;4.68;3.28;;;;;;;;;;4752269;30;20048;-71
2022/09/01 13:26:22;;;;;;;5.82;3.55;;;;;;;;;;4752278;30;20036;-70
2022/09/01 13:28:50;;;;;;;6.20;3.45;;;;;;;;;;4752075;30;20027;-70
2022/09/01 13:31:16;;;;;;;5.65;3.20;;;;;;;;;;4751679;30;20044;-70
2022/09/01 13:33:42;;;;;;;5.68;3.63;;;;;;;;;;4751972;30;20024;-70
2022/09/01 13:36:09;;;;;;;7.18;3.20;;;;;;;;;;4751720;30;20040;-71
2022/09/01 13:38:35;;;;;;;4.15;3.40;;;;;;;;;;4751780;30;20393;-70
2022/09/01 13:41:02;;;;;;;6.47;2.83;;;;;;;;;;4751734;30;20105;-71
2022/09/01 13:43:28;;;;;;;5.47;3.15;;;;;;;;;;4752003;30;20471;-71
2022/09/01 13:45:54;;;;;;;5.18;3.08;;;;;;;;;;4751849;30;20032;-71
2022/09/01 13:48:21;;;;;;;5.13;3.00;;;;;;;;;;4751684;30;20035;-70
2022/09/01 13:50:48;;;;;;;8.40;3.15;;;;;;;;;;4751342;30;20039;-71
2022/09/01 13:53:15;;;;;;;6.57;3.20;;;;;;;;;;4751871;30;20479;-70
2022/09/01 13:55:42;;;;;;;6.18;3.08;;;;;;;;;;4751381;30;20092;-70
2022/09/01 13:58:09;;;;;;;4.13;3.13;;;;;;;;;;4751608;30;20058;-71
2022/09/01 14:00:37;;;;;;;5.68;2.75;;;;;;;;;;4751248;30;20046;-70
2022/09/01 14:03:08;;;;;;;3.65;2.88;;;;;;;;;;4751158;30;20024;-70
2022/09/01 14:05:36;;;;;;;5.25;3.15;;;;;;;;;;4750650;30;20028;-71
2022/09/01 14:08:03;;;;;;;4.40;2.72;;;;;;;;;;4751513;30;20025;-71
2022/09/01 14:10:31;;;;;;;4.03;3.00;;;;;;;;;;4751615;30;20036;-70
2022/09/01 14:12:57;;;;;;;8.27;2.90;;;;;;;;;;4751240;30;20028;-71
2022/09/01 14:15:24;;;;;;;3.72;2.92;;;;;;;;;;4751732;30;20028;-71
2022/09/01 14:17:51;;;;;;;8.43;3.17;;;;;;;;;;4751390;30;20063;-71
2022/09/01 14:20:19;;;;;;;4.68;3.03;;;;;;;;;;4750756;30;20044;-71
2022/09/01 14:22:46;;;;;;;4.88;3.17;;;;;;;;;;4750312;30;20472;-71
2022/09/01 14:25:13;;;;;;;9.02;3.40;;;;;;;;;;4750904;30;20853;-71
2022/09/01 14:27:39;;;;;;;4.43;2.78;;;;;;;;;;4750674;30;20032;-71
2022/09/01 14:30:07;;;;;;;2.97;2.67;;;;;;;;;;4751082;30;20020;-71
2022/09/01 14:32:33;;;;;;;4.13;2.92;;;;;;;;;;4750333;30;20036;-71
2022/09/01 14:35:00;;;;;;;7.22;2.63;;;;;;;;;;4750175;30;20449;-71
2022/09/01 14:37:27;;;;;;;5.50;2.88;;;;;;;;;;4750755;30;20413;-72
2022/09/01 14:39:54;;;;;;;6.03;2.92;;;;;;;;;;4750410;30;20036;-71
2022/09/01 14:42:22;;;;;;;3.33;2.83;;;;;;;;;;4749370;30;20470;-71
2022/09/01 14:44:49;;;;;;;4.50;2.78;;;;;;;;;;4750197;30;20036;-71
2022/09/01 14:47:16;;;;;;;13.35;3.30;;;;;;;;;;4750846;30;20040;-71
2022/09/01 14:49:42;;;;;;;5.95;2.72;;;;;;;;;;4750441;30;20398;-71
2022/09/01 14:52:09;;;;;;;3.55;2.50;;;;;;;;;;4750858;30;20028;-71
2022/09/01 14:54:36;;;;;;;8.48;2.85;;;;;;;;;;4750879;30;20327;-71
2022/09/01 14:57:03;;;;;;;4.55;2.50;;;;;;;;;;4750778;30;20032;-71
2022/09/01 14:59:30;;;;;;;12.85;2.40;;;;;;;;;;4750761;30;20032;-71
2022/09/01 15:01:56;;;;;;;3.80;2.13;;;;;;;;;;4750562;30;20032;-70